Time;durP1;ratioP1;P1;durP2;ratioP2;P2;SDS_P1;SDS_P2;PMS_P1;PMS_P2;Temp;Humidity;BMP_temperature;BMP_pressure;BME280_temperature;BME280_humidity;BME280_pressure;Samples;Min_cycle;Max_cycle;Signal;HPM_P1;HPM_P2
2021/12/20 00:01:58;;;;;;;38.10;18.43;;;;;;;5.55;93.95;98966.53;4934511;28;20632;-84
2021/12/20 00:04:27;;;;;;;34.07;18.30;;;;;;;5.57;94.25;98960.41;4951622;28;20727;-84
2021/12/20 00:06:58;;;;;;;35.50;18.33;;;;;;;5.60;93.91;98960.31;4952627;28;20765;-84
2021/12/20 00:09:26;;;;;;;32.97;17.40;;;;;;;5.63;93.58;98953.28;4934824;28;20629;-84
2021/12/20 00:11:54;;;;;;;37.67;18.13;;;;;;;5.64;93.64;98956.72;4943950;28;20659;-83
2021/12/20 00:14:22;;;;;;;38.97;19.30;;;;;;;5.66;94.00;98949.75;4943978;28;21267;-84
2021/12/20 00:16:50;;;;;;;36.20;19.13;;;;;;;5.69;93.87;98949.66;4948673;28;20638;-84
2021/12/20 00:19:20;;;;;;;36.87;19.30;;;;;;;5.70;93.77;98936.66;4951051;28;20636;-84
2021/12/20 00:21:50;;;;;;;35.40;18.40;;;;;;;5.70;93.26;98944.41;4964124;28;20628;-84
2021/12/20 00:24:18;;;;;;;36.80;19.40;;;;;;;5.68;93.06;98945.34;4951210;28;20666;-84
2021/12/20 00:26:47;;;;;;;42.40;18.47;;;;;;;5.65;93.19;98945.47;4953148;28;20636;-84
2021/12/20 00:29:15;;;;;;;39.70;19.03;;;;;;;5.64;93.47;98936.03;4964589;28;21176;-84
2021/12/20 00:31:43;;;;;;;42.60;19.77;;;;;;;5.62;93.56;98930.91;4949644;28;20729;-84
2021/12/20 00:34:11;;;;;;;42.23;19.93;;;;;;;5.63;93.49;98931.75;4968114;28;20698;-84
2021/12/20 00:36:41;;;;;;;42.17;19.83;;;;;;;5.65;93.70;98927.34;4952341;28;20628;-84
2021/12/20 00:41:54;;;;;;;42.17;20.43;;;;;;;5.68;93.37;98927.25;4965902;28;21023;-84
2021/12/20 00:44:22;;;;;;;35.97;18.73;;;;;;;5.68;93.80;98928.13;4968538;28;20665;-83
2021/12/20 00:46:55;;;;;;;38.30;19.50;;;;;;;5.67;93.70;98921.25;4965036;28;20719;-84
2021/12/20 00:49:23;;;;;;;39.10;19.40;;;;;;;5.68;93.91;98925.53;4965996;28;20640;-84
2021/12/20 00:51:54;;;;;;;41.33;20.03;;;;;;;5.72;93.77;98934.00;4943970;28;20646;-83
2021/12/20 00:54:22;;;;;;;39.00;19.50;;;;;;;5.70;93.11;98938.41;4955730;28;20635;-84
2021/12/20 00:56:50;;;;;;;42.43;20.10;;;;;;;5.63;92.94;98929.16;4968201;28;21191;-84
2021/12/20 00:59:21;;;;;;;40.40;18.20;;;;;;;5.63;93.58;98932.59;4974160;28;21191;-84
2021/12/20 01:01:49;;;;;;;41.40;21.30;;;;;;;5.63;93.77;98930.00;4955751;28;20717;-84
2021/12/20 01:04:17;;;;;;;42.83;20.43;;;;;;;5.66;93.82;98918.72;4967422;28;20651;-84
2021/12/20 01:06:45;;;;;;;38.23;18.80;;;;;;;5.65;94.03;98930.81;4968431;28;20676;-84
2021/12/20 01:09:18;;;;;;;38.93;18.57;;;;;;;5.65;93.95;98924.78;4957109;28;20664;-83
2021/12/20 01:11:51;;;;;;;38.60;20.43;;;;;;;5.65;93.92;98920.47;4971796;28;21278;-84
2021/12/20 01:14:23;;;;;;;34.10;17.70;;;;;;;5.69;94.05;98931.53;4970896;28;21159;-84
2021/12/20 01:16:53;;;;;;;37.63;19.23;;;;;;;5.67;93.28;98926.41;4968699;28;20665;-84
2021/12/20 01:19:22;;;;;;;34.53;17.37;;;;;;;5.63;93.42;98931.75;4955238;28;20779;-84
2021/12/20 01:21:50;;;;;;;36.23;19.97;;;;;;;5.62;93.56;98933.50;4953617;28;20647;-83
2021/12/20 01:24:21;;;;;;;39.43;19.80;;;;;;;5.63;93.73;98929.16;4955033;28;20651;-84
2021/12/20 01:26:49;;;;;;;38.00;19.77;;;;;;;5.65;93.93;98924.78;4969634;28;20660;-83
2021/12/20 01:29:17;;;;;;;38.47;19.27;;;;;;;5.65;93.94;98923.03;4951674;28;20637;-84
2021/12/20 01:31:45;;;;;;;38.53;18.50;;;;;;;5.67;94.39;98928.16;4965286;28;20644;-84
2021/12/20 01:34:13;;;;;;;37.27;19.43;;;;;;;5.68;94.10;98916.91;4937384;28;20641;-84
2021/12/20 01:36:41;;;;;;;41.67;19.53;;;;;;;5.68;94.08;98924.66;4965507;28;20624;-84
2021/12/20 01:39:12;;;;;;;41.93;19.70;;;;;;;5.68;93.87;98916.91;4970237;28;20632;-84
2021/12/20 01:41:43;;;;;;;38.40;19.23;;;;;;;5.68;94.14;98920.34;4955982;28;20743;-84
2021/12/20 01:44:12;;;;;;;34.77;18.87;;;;;;;5.67;93.91;98917.81;4954488;28;20637;-83
2021/12/20 01:46:41;;;;;;;35.10;17.57;;;;;;;5.68;93.90;98924.66;4952966;28;20669;-84
2021/12/20 01:49:12;;;;;;;37.07;18.50;;;;;;;5.66;93.63;98919.53;4953724;28;21292;-84
2021/12/20 01:51:51;;;;;;;37.40;18.80;;;;;;;5.66;93.69;98911.78;4950759;28;21186;-84
2021/12/20 01:54:19;;;;;;;40.20;19.70;;;;;;;5.64;93.80;98911.00;4968894;28;20725;-83
2021/12/20 01:56:48;;;;;;;36.70;19.00;;;;;;;5.67;93.67;98913.47;4970881;28;21342;-84
2021/12/20 01:59:20;;;;;;;37.50;19.27;;;;;;;5.69;93.97;98910.84;4955839;28;20648;-83
2021/12/20 02:01:49;;;;;;;36.13;20.07;;;;;;;5.60;92.90;98924.09;4953528;28;20661;-84
2021/12/20 02:04:19;;;;;;;37.30;19.33;;;;;;;5.47;93.58;98922.81;4940396;28;20650;-84
2021/12/20 02:06:48;;;;;;;35.57;18.40;;;;;;;5.49;93.76;98926.22;4951222;28;20704;-84
2021/12/20 02:09:19;;;;;;;39.77;19.37;;;;;;;5.51;94.54;98926.16;4955351;28;20628;-84
2021/12/20 02:11:50;;;;;;;43.10;19.03;;;;;;;5.51;95.20;98918.41;4972127;28;20648;-84
2021/12/20 02:14:21;;;;;;;40.73;21.63;;;;;;;5.55;94.83;98913.06;4955912;28;20684;-84
2021/12/20 02:16:49;;;;;;;40.33;21.03;;;;;;;5.59;94.77;98908.63;4969652;28;20642;-84
2021/12/20 02:19:18;;;;;;;38.53;20.10;;;;;;;5.59;94.55;98896.53;4937450;28;20651;-84
2021/12/20 02:21:48;;;;;;;33.33;18.70;;;;;;;5.63;94.55;98908.47;4955083;28;20653;-84
2021/12/20 02:24:16;;;;;;;38.43;20.03;;;;;;;5.63;94.57;98913.63;4971499;28;21431;-84
2021/12/20 02:26:45;;;;;;;39.63;20.63;;;;;;;5.61;94.56;98910.28;4971160;28;21261;-84
2021/12/20 02:29:15;;;;;;;37.47;19.37;;;;;;;5.60;94.44;98906.00;4969992;28;20636;-83
2021/12/20 02:37:27;;;;;;;35.57;18.43;;;;;;;5.65;94.08;98899.75;4968291;28;20665;-84
2021/12/20 02:39:56;;;;;;;36.80;18.30;;;;;;;5.65;94.70;98898.91;4970703;28;20647;-84
2021/12/20 02:42:30;;;;;;;37.03;19.27;;;;;;;5.67;94.29;98899.72;4955235;28;20630;-84
2021/12/20 02:45:11;;;;;;;37.47;18.27;;;;;;;5.65;94.58;98897.19;4954528;28;21174;-84
2021/12/20 02:47:41;;;;;;;36.23;18.97;;;;;;;5.60;94.13;98893.88;4968195;28;20767;-84
2021/12/20 02:50:10;;;;;;;36.73;19.40;;;;;;;5.62;94.59;98896.41;4953826;28;20741;-84
2021/12/20 02:52:39;;;;;;;39.77;19.80;;;;;;;5.63;94.26;98877.44;4967554;28;20647;-84
2021/12/20 02:55:09;;;;;;;38.30;20.43;;;;;;;5.63;94.13;98886.00;4965429;28;21548;-84
2021/12/20 03:02:33;;;;;;;33.77;18.70;;;;;;;5.65;94.69;98875.63;4964247;28;20614;-84
2021/12/20 03:05:01;;;;;;;40.80;18.70;;;;;;;5.65;94.91;98870.44;4967687;28;20627;-84
2021/12/20 03:07:38;;;;;;;39.67;19.53;;;;;;;5.65;94.56;98867.84;4952729;28;20664;-84
2021/12/20 03:10:09;;;;;;;37.33;19.87;;;;;;;5.64;94.80;98871.34;4962412;28;20636;-84
2021/12/20 03:12:37;;;;;;;42.60;21.90;;;;;;;5.64;94.15;98884.28;4970720;28;21163;-84
2021/12/20 03:15:11;;;;;;;39.70;20.17;;;;;;;5.63;94.21;98887.78;4934063;28;20729;-84
2021/12/20 03:17:40;;;;;;;42.60;20.50;;;;;;;5.65;94.11;98886.84;4965601;28;20719;-84
2021/12/20 03:20:09;;;;;;;36.07;18.53;;;;;;;5.68;94.28;98881.53;4967866;28;20667;-84
2021/12/20 03:22:37;;;;;;;40.23;20.90;;;;;;;5.67;94.10;98881.59;4948028;28;21192;-84
2021/12/20 03:25:06;;;;;;;39.20;20.30;;;;;;;5.66;94.16;98882.50;4964301;28;20624;-85
2021/12/20 03:27:35;;;;;;;42.37;19.80;;;;;;;5.66;94.39;98893.66;4966615;28;20763;-84
2021/12/20 03:30:05;;;;;;;40.37;19.83;;;;;;;5.66;94.53;98877.31;4946950;28;20652;-85
2021/12/20 03:32:33;;;;;;;38.20;19.80;;;;;;;5.66;94.29;98883.31;4953356;28;20625;-84
2021/12/20 03:35:03;;;;;;;38.33;20.30;;;;;;;5.68;94.39;98885.84;4972308;28;21184;-84
2021/12/20 03:37:31;;;;;;;42.20;20.20;;;;;;;5.71;94.14;98876.25;4967519;28;20621;-84
2021/12/20 03:40:02;;;;;;;42.57;20.37;;;;;;;5.70;94.57;98878.91;4935039;28;20652;-84
2021/12/20 03:42:31;;;;;;;35.17;19.47;;;;;;;5.71;94.33;98883.16;4964138;28;20647;-84
2021/12/20 03:45:00;;;;;;;38.57;20.40;;;;;;;5.72;94.22;98879.69;4968410;28;21197;-84
2021/12/20 03:47:29;;;;;;;39.77;19.30;;;;;;;5.72;94.13;98880.50;4962418;28;20656;-84
2021/12/20 03:49:58;;;;;;;43.60;19.47;;;;;;;5.74;94.28;98873.59;4973480;28;20624;-84
2021/12/20 03:52:28;;;;;;;39.63;18.50;;;;;;;5.76;94.17;98873.53;4967399;28;21264;-84
2021/12/20 03:54:56;;;;;;;35.47;17.70;;;;;;;5.74;94.58;98870.13;4952020;28;20642;-84
2021/12/20 03:57:24;;;;;;;38.80;18.70;;;;;;;5.74;94.25;98864.97;4951643;28;20805;-84
2021/12/20 03:59:56;;;;;;;38.27;19.30;;;;;;;5.73;94.47;98868.44;4964621;28;20665;-84
2021/12/20 04:02:28;;;;;;;38.73;18.93;;;;;;;5.73;94.41;98874.44;4962053;28;20977;-84
2021/12/20 04:04:56;;;;;;;38.17;19.20;;;;;;;5.74;94.31;98867.56;4965551;28;20686;-84
2021/12/20 04:07:24;;;;;;;41.00;19.77;;;;;;;5.73;94.26;98879.63;4967818;28;21228;-84
2021/12/20 04:09:52;;;;;;;41.77;21.07;;;;;;;5.74;94.31;98880.50;4947661;28;20652;-84
2021/12/20 04:12:23;;;;;;;46.00;21.40;;;;;;;5.74;94.48;98873.59;4966389;28;20656;-84
2021/12/20 04:14:51;;;;;;;41.17;20.43;;;;;;;5.75;94.02;98866.66;4956096;28;20725;-84
2021/12/20 04:17:19;;;;;;;37.60;18.37;;;;;;;5.76;94.25;98869.19;4945488;28;20660;-84
2021/12/20 04:19:51;;;;;;;42.33;20.27;;;;;;;5.78;94.50;98876.91;4963511;28;21210;-84
2021/12/20 04:22:19;;;;;;;41.83;20.93;;;;;;;5.79;94.38;98871.66;4951999;28;20634;-84
2021/12/20 04:24:48;;;;;;;37.40;19.57;;;;;;;5.79;94.32;98876.00;4964181;28;20621;-84
2021/12/20 04:27:16;;;;;;;43.03;20.70;;;;;;;5.83;94.21;98890.50;4950376;28;20648;-83
2021/12/20 04:29:44;;;;;;;43.60;22.50;;;;;;;5.80;94.03;98885.44;4962476;28;20647;-84
2021/12/20 04:32:12;;;;;;;38.03;20.60;;;;;;;5.79;94.02;98873.44;4964572;28;20648;-84
2021/12/20 04:34:40;;;;;;;37.40;19.80;;;;;;;5.79;94.38;98874.25;4966017;28;20643;-84
2021/12/20 04:37:09;;;;;;;35.37;19.20;;;;;;;5.81;94.43;98881.97;4946738;28;20648;-84
2021/12/20 04:39:38;;;;;;;40.10;18.93;;;;;;;5.84;94.25;98882.69;4934204;28;20741;-84
2021/12/20 04:42:08;;;;;;;46.53;20.27;;;;;;;5.85;94.61;98878.34;4934573;28;20633;-84
2021/12/20 04:44:36;;;;;;;37.37;18.77;;;;;;;5.85;94.42;98884.38;4963306;28;21220;-84
2021/12/20 04:47:06;;;;;;;40.53;18.50;;;;;;;5.84;94.49;98884.44;4961726;28;21071;-83
2021/12/20 04:49:34;;;;;;;38.80;19.30;;;;;;;5.84;94.51;98890.44;4964309;28;21190;-84
2021/12/20 04:52:02;;;;;;;38.40;20.23;;;;;;;5.83;94.42;98886.19;4966275;28;21016;-84
2021/12/20 04:54:34;;;;;;;42.17;18.60;;;;;;;5.86;94.28;98892.97;4963377;28;20633;-84
2021/12/20 04:57:03;;;;;;;45.00;20.10;;;;;;;5.90;94.56;98891.97;4964802;28;21222;-83
2021/12/20 04:59:31;;;;;;;40.43;20.80;;;;;;;5.89;94.03;98895.44;4967646;28;20634;-84
2021/12/20 05:01:59;;;;;;;41.80;20.50;;;;;;;5.89;94.99;98895.44;4963014;28;20652;-83
2021/12/20 05:04:27;;;;;;;40.83;20.00;;;;;;;5.93;93.44;98899.63;4964409;28;20646;-84
2021/12/20 05:06:55;;;;;;;39.90;19.77;;;;;;;5.90;93.72;98895.41;4966338;28;21285;-84
2021/12/20 05:09:26;;;;;;;42.10;19.10;;;;;;;5.88;94.34;98886.84;4941709;28;21208;-83
2021/12/20 05:12:09;;;;;;;42.43;21.53;;;;;;;5.90;93.99;98894.56;4971580;28;20693;-84
2021/12/20 05:14:37;;;;;;;41.10;18.50;;;;;;;5.91;94.11;98885.88;4951603;28;20650;-84
2021/12/20 05:17:05;;;;;;;41.57;19.50;;;;;;;5.92;94.32;98887.56;4945330;28;20621;-84
2021/12/20 05:19:38;;;;;;;38.33;20.47;;;;;;;5.94;94.33;98893.53;4952330;28;20644;-83
2021/12/20 05:22:06;;;;;;;42.27;21.33;;;;;;;5.96;94.26;98902.09;4969289;28;21191;-84
2021/12/20 05:24:35;;;;;;;45.10;20.47;;;;;;;5.97;93.91;98893.41;4970167;28;20723;-83
2021/12/20 05:27:05;;;;;;;42.10;20.90;;;;;;;5.96;93.84;98891.75;4950706;28;20753;-84
2021/12/20 05:29:33;;;;;;;37.03;17.80;;;;;;;5.96;93.83;98883.97;4932900;28;20644;-84
2021/12/20 05:32:06;;;;;;;37.23;18.57;;;;;;;5.95;93.88;98898.66;4966423;28;20627;-83
2021/12/20 05:34:34;;;;;;;42.17;19.87;;;;;;;5.96;93.83;98899.50;4969163;28;21009;-83
2021/12/20 05:37:03;;;;;;;40.53;21.00;;;;;;;5.98;94.09;98902.88;4954068;28;21007;-83
2021/12/20 05:39:31;;;;;;;38.63;19.33;;;;;;;5.97;94.16;98894.28;4940916;28;20630;-84
2021/12/20 05:41:59;;;;;;;36.50;19.23;;;;;;;5.98;94.24;98902.88;4955947;28;20643;-84
2021/12/20 05:44:28;;;;;;;40.53;19.20;;;;;;;5.97;93.86;98902.03;4969501;28;20627;-84
2021/12/20 05:46:57;;;;;;;34.27;18.83;;;;;;;5.98;93.84;98911.47;4955142;28;20636;-84
2021/12/20 05:49:25;;;;;;;38.53;19.73;;;;;;;5.98;93.63;98910.66;4954285;28;20636;-84
2021/12/20 05:51:58;;;;;;;41.03;21.03;;;;;;;5.97;93.61;98902.03;4972964;28;20628;-84
2021/12/20 05:54:26;;;;;;;42.57;20.63;;;;;;;5.98;93.59;98906.31;4972275;28;20652;-84
2021/12/20 05:56:54;;;;;;;45.27;22.80;;;;;;;5.99;93.50;98907.16;4954585;28;21005;-83
2021/12/20 05:59:25;;;;;;;44.40;20.80;;;;;;;5.99;93.71;98902.00;4969240;28;20769;-83
2021/12/20 06:01:55;;;;;;;41.30;20.30;;;;;;;5.98;93.61;98914.06;4944966;28;20685;-84
2021/12/20 06:04:23;;;;;;;41.70;21.37;;;;;;;6.00;93.81;98922.66;4955338;28;21059;-83
2021/12/20 06:06:51;;;;;;;43.83;20.30;;;;;;;6.02;93.49;98917.41;4970393;28;20657;-84
2021/12/20 06:09:19;;;;;;;39.30;18.77;;;;;;;6.03;93.84;98919.06;4938248;28;21286;-84
2021/12/20 06:11:47;;;;;;;52.80;21.90;;;;;;;6.05;94.13;98912.94;4965825;28;20739;-84
2021/12/20 06:14:16;;;;;;;37.90;20.47;;;;;;;6.07;93.59;98910.31;4961144;28;20633;-84
2021/12/20 06:16:44;;;;;;;40.10;18.70;;;;;;;6.05;93.43;98909.53;4950147;28;21279;-83
2021/12/20 06:19:13;;;;;;;45.40;19.70;;;;;;;6.06;93.53;98913.78;4961648;28;20631;-83
2021/12/20 06:21:44;;;;;;;41.33;20.70;;;;;;;6.08;93.73;98922.34;4953160;28;20638;-83
2021/12/20 06:24:12;;;;;;;38.53;19.90;;;;;;;6.08;94.00;98917.19;4972252;28;20640;-84
2021/12/20 06:26:40;;;;;;;39.80;19.50;;;;;;;6.10;93.84;98911.03;4936681;28;20636;-84
2021/12/20 06:29:08;;;;;;;40.40;21.17;;;;;;;6.13;92.50;98916.94;4945699;28;20643;-84
2021/12/20 06:31:37;;;;;;;44.60;21.93;;;;;;;6.14;93.36;98916.03;4949309;28;20646;-84
2021/12/20 06:34:05;;;;;;;37.00;19.20;;;;;;;6.13;93.01;98919.53;4949691;28;20640;-84
2021/12/20 06:36:34;;;;;;;42.27;21.97;;;;;;;6.12;92.80;98924.78;4950195;28;20703;-84
2021/12/20 06:39:03;;;;;;;41.63;20.67;;;;;;;6.11;93.32;98928.25;4953578;28;20624;-84
2021/12/20 06:41:32;;;;;;;40.37;19.60;;;;;;;6.09;93.25;98925.72;4963536;28;21255;-84
2021/12/20 06:44:01;;;;;;;43.20;20.30;;;;;;;6.08;93.15;98924.03;4968080;28;20654;-84
2021/12/20 06:46:31;;;;;;;37.97;20.30;;;;;;;6.08;92.97;98918.00;4957704;28;20740;-84
2021/12/20 06:48:59;;;;;;;42.83;21.20;;;;;;;6.08;92.93;98924.03;4933417;28;21272;-81
2021/12/20 06:51:27;;;;;;;38.73;20.93;;;;;;;6.08;93.31;98927.53;4947336;28;20738;-85
2021/12/20 06:53:58;;;;;;;46.10;21.20;;;;;;;6.08;93.00;98928.38;4962883;28;20633;-85
2021/12/20 06:56:27;;;;;;;42.90;21.30;;;;;;;6.11;93.26;98938.63;4947513;28;20646;-84
2021/12/20 06:58:55;;;;;;;46.00;21.57;;;;;;;6.11;93.31;98929.09;4966494;28;20641;-85
2021/12/20 07:01:23;;;;;;;42.83;21.80;;;;;;;6.11;93.09;98936.84;4957074;28;20643;-85
2021/12/20 07:03:51;;;;;;;42.80;21.13;;;;;;;6.11;93.28;98938.63;4960123;28;21189;-85
2021/12/20 07:06:19;;;;;;;42.63;21.50;;;;;;;6.10;92.96;98934.31;4966482;28;20662;-85
2021/12/20 07:08:47;;;;;;;37.73;21.10;;;;;;;6.10;93.60;98936.91;4950181;28;20660;-85
2021/12/20 07:11:17;;;;;;;43.53;21.20;;;;;;;6.09;93.41;98938.66;4933143;28;20651;-85
2021/12/20 07:13:45;;;;;;;41.60;20.37;;;;;;;6.08;93.77;98944.72;4964947;28;20633;-85
2021/12/20 07:16:13;;;;;;;44.27;21.60;;;;;;;6.07;93.23;98942.19;4942598;28;20650;-86
2021/12/20 07:18:42;;;;;;;45.90;20.87;;;;;;;6.08;93.48;98941.31;4945737;28;20652;-85
2021/12/20 07:21:10;;;;;;;42.60;21.50;;;;;;;6.08;93.71;98954.25;4955835;28;20694;-86
2021/12/20 07:23:38;;;;;;;42.60;20.53;;;;;;;6.09;93.63;98951.63;4960459;28;20818;-86
2021/12/20 07:26:08;;;;;;;43.17;20.00;;;;;;;6.12;93.76;98948.91;4944059;28;20677;-85
2021/12/20 07:28:38;;;;;;;43.83;20.90;;;;;;;6.15;93.48;98946.22;4955730;28;20659;-85
2021/12/20 07:31:06;;;;;;;39.93;20.63;;;;;;;6.16;93.84;98945.31;4959312;28;20643;-84
2021/12/20 07:33:34;;;;;;;45.97;20.07;;;;;;;6.19;93.99;98950.38;4944470;28;20638;-85
2021/12/20 07:36:05;;;;;;;66.87;34.67;;;;;;;6.21;93.66;98955.50;4958649;28;21128;-85
2021/12/20 07:38:37;;;;;;;39.10;20.97;;;;;;;6.23;93.95;98957.13;4941879;28;21320;-84
2021/12/20 07:41:06;;;;;;;38.10;18.83;;;;;;;6.24;94.05;98955.34;4950003;28;20642;-84
2021/12/20 07:43:34;;;;;;;44.60;23.03;;;;;;;6.23;93.61;98959.72;4946197;28;20733;-84
2021/12/20 07:46:06;;;;;;;43.53;21.00;;;;;;;6.23;93.55;98959.72;4952833;28;20649;-84
2021/12/20 07:48:34;;;;;;;40.77;20.73;;;;;;;6.22;93.08;98963.22;4961990;28;20754;-84
2021/12/20 07:51:04;;;;;;;49.30;23.27;;;;;;;6.21;93.51;98956.34;4947173;28;20656;-84
2021/12/20 07:53:32;;;;;;;41.37;20.23;;;;;;;6.22;93.56;98960.63;4948430;28;22282;-85
2021/12/20 07:56:04;;;;;;;42.37;21.03;;;;;;;6.23;93.23;98953.69;4949507;28;20641;-84
2021/12/20 07:58:35;;;;;;;43.77;21.97;;;;;;;6.24;93.24;98955.34;4947368;28;20641;-84
2021/12/20 08:01:05;;;;;;;40.23;21.70;;;;;;;6.25;93.15;98957.91;4961128;28;20668;-84
2021/12/20 08:03:34;;;;;;;48.77;23.77;;;;;;;6.27;93.01;98965.59;4927837;28;20651;-86
2021/12/20 08:06:02;;;;;;;45.13;21.73;;;;;;;6.29;93.53;98969.84;4938782;28;20760;-86
2021/12/20 08:08:30;;;;;;;47.40;22.20;;;;;;;6.30;93.54;98958.59;4952940;28;20768;-86
2021/12/20 08:10:59;;;;;;;46.50;23.27;;;;;;;6.37;93.67;98962.63;4936633;28;22233;-85
2021/12/20 08:13:27;;;;;;;51.27;23.40;;;;;;;6.39;93.68;98955.66;4954276;28;20657;-85
2021/12/20 08:15:55;;;;;;;41.90;22.20;;;;;;;6.42;93.57;98954.66;4932309;28;20727;-85
2021/12/20 08:18:25;;;;;;;45.13;21.23;;;;;;;6.45;93.23;98962.31;4916249;28;20641;-85
2021/12/20 08:20:53;;;;;;;44.17;21.83;;;;;;;6.48;93.54;98967.38;4944820;28;20644;-85
2021/12/20 08:23:21;;;;;;;47.20;21.70;;;;;;;6.52;93.12;98962.03;4928210;28;20723;-85
2021/12/20 08:25:50;;;;;;;50.40;24.20;;;;;;;6.54;93.36;98961.97;4954143;28;20643;-86
2021/12/20 08:28:18;;;;;;;52.00;23.30;;;;;;;6.56;93.01;98967.97;4944153;28;21374;-86
2021/12/20 08:30:46;;;;;;;49.47;24.90;;;;;;;6.57;92.60;98970.50;4939878;28;20733;-86
2021/12/20 08:33:14;;;;;;;46.63;23.63;;;;;;;6.60;92.16;98971.22;4945529;28;20643;-85
2021/12/20 08:35:49;;;;;;;56.40;24.30;;;;;;;6.62;92.72;98974.56;4943713;28;20638;-85
2021/12/20 08:38:18;;;;;;;48.47;22.20;;;;;;;6.65;91.88;98979.66;4930702;28;21383;-86
2021/12/20 08:40:47;;;;;;;47.70;22.93;;;;;;;6.68;92.45;98987.31;4941962;28;20636;-86
2021/12/20 08:43:17;;;;;;;46.17;22.37;;;;;;;6.66;91.93;98976.16;4928308;28;20743;-85
2021/12/20 08:45:46;;;;;;;48.43;22.97;;;;;;;6.70;92.36;98976.88;4940910;28;22684;-85
2021/12/20 08:48:14;;;;;;;45.90;23.20;;;;;;;6.75;91.97;98980.13;4931096;28;20671;-85
2021/12/20 08:50:44;;;;;;;43.17;21.83;;;;;;;6.77;92.22;98975.75;4950609;28;20669;-84
2021/12/20 08:53:17;;;;;;;45.27;21.77;;;;;;;6.78;91.97;98985.19;4936836;28;21235;-85
2021/12/20 08:55:48;;;;;;;45.47;22.53;;;;;;;6.83;91.86;98989.31;4945627;28;20645;-84
2021/12/20 08:58:16;;;;;;;42.63;21.80;;;;;;;6.83;91.55;98994.47;4939136;28;20742;-84
2021/12/20 09:00:45;;;;;;;43.33;21.20;;;;;;;6.88;91.70;98989.13;4959959;28;20638;-84
2021/12/20 09:03:13;;;;;;;46.73;22.53;;;;;;;6.91;91.69;99004.56;4950963;28;20649;-84
2021/12/20 09:05:42;;;;;;;44.30;21.87;;;;;;;6.93;91.24;99000.13;4942548;28;20668;-84
2021/12/20 09:08:12;;;;;;;46.73;21.80;;;;;;;6.93;91.49;98990.63;4910480;28;20633;-84
2021/12/20 09:10:40;;;;;;;49.50;23.80;;;;;;;6.97;91.54;98993.94;4931647;28;20667;-84
2021/12/20 09:13:08;;;;;;;43.67;22.33;;;;;;;6.97;91.33;98999.97;4931103;28;20646;-84
2021/12/20 09:15:39;;;;;;;43.53;21.40;;;;;;;7.00;91.53;99007.63;4934513;28;20652;-84
2021/12/20 09:18:08;;;;;;;46.20;22.17;;;;;;;6.96;91.16;99000.88;4951408;28;21016;-83
2021/12/20 09:20:37;;;;;;;44.03;21.87;;;;;;;7.01;91.00;99003.31;4962856;28;20697;-84
2021/12/20 09:23:07;;;;;;;45.67;21.83;;;;;;;7.00;91.80;98996.41;4942584;28;20635;-84
2021/12/20 09:25:43;;;;;;;45.03;21.73;;;;;;;7.00;91.50;98999.00;4959769;28;20641;-84
2021/12/20 09:28:13;;;;;;;46.20;21.43;;;;;;;7.02;91.43;98999.78;4964289;28;21259;-84
2021/12/20 09:30:43;;;;;;;41.67;20.67;;;;;;;7.06;91.75;99000.44;4954551;28;20655;-84
2021/12/20 09:33:11;;;;;;;44.30;23.20;;;;;;;7.10;90.87;99009.78;4958281;28;20631;-83
2021/12/20 09:35:39;;;;;;;46.80;20.97;;;;;;;7.05;89.54;99003.09;4932392;28;21191;-84
2021/12/20 09:38:10;;;;;;;41.73;20.77;;;;;;;7.02;90.13;99007.56;4949163;28;20863;-84
2021/12/20 09:40:42;;;;;;;39.60;18.77;;;;;;;7.08;90.09;99011.63;4946863;28;20649;-84
2021/12/20 09:43:12;;;;;;;38.37;19.17;;;;;;;7.15;89.90;99010.44;4966351;28;21205;-84
2021/12/20 09:45:44;;;;;;;35.83;19.87;;;;;;;7.21;90.99;99009.38;4945481;28;20659;-84
2021/12/20 09:48:13;;;;;;;44.07;20.90;;;;;;;7.24;89.59;99002.28;4950162;28;20634;-84
2021/12/20 09:50:41;;;;;;;36.80;18.23;;;;;;;7.23;90.42;99005.81;4966463;28;20692;-83
2021/12/20 09:53:09;;;;;;;36.40;18.33;;;;;;;7.22;89.10;99004.13;4949037;28;20699;-83
2021/12/20 09:55:38;;;;;;;39.60;19.00;;;;;;;7.22;90.03;99006.72;4949605;28;20644;-83
2021/12/20 09:58:07;;;;;;;42.80;20.80;;;;;;;7.26;91.22;99004.81;4933847;28;21263;-84
2021/12/20 10:00:35;;;;;;;41.50;21.37;;;;;;;7.28;89.46;99001.28;4966142;28;21277;-84
2021/12/20 10:03:06;;;;;;;39.40;20.70;;;;;;;7.28;91.32;98998.69;4963660;28;20625;-84
2021/12/20 10:05:35;;;;;;;37.30;20.77;;;;;;;7.29;91.32;98994.31;4947329;28;20780;-84
2021/12/20 10:08:12;;;;;;;39.17;19.77;;;;;;;7.27;90.71;98994.38;4957829;28;20640;-85
2021/12/20 10:10:46;;;;;;;40.33;20.70;;;;;;;7.26;89.23;98995.31;4941600;28;20769;-84
2021/12/20 10:13:24;;;;;;;36.70;18.70;;;;;;;7.24;90.35;98996.28;4954753;28;20649;-85
2021/12/20 10:15:53;;;;;;;37.70;19.03;;;;;;;7.23;89.67;98997.16;4942150;28;20642;-85
2021/12/20 10:18:22;;;;;;;37.67;20.13;;;;;;;7.16;88.71;98999.16;4962906;28;20641;-84
2021/12/20 10:20:51;;;;;;;31.27;15.30;;;;;;;7.08;88.57;98998.66;4962584;28;20987;-84
2021/12/20 10:23:22;;;;;;;21.40;11.87;;;;;;;7.05;87.83;98992.72;4968291;28;20641;-86
2021/12/20 10:25:55;;;;;;;19.23;10.40;;;;;;;7.08;86.52;98998.66;4945092;28;21371;-86
2021/12/20 10:28:36;;;;;;;18.87;9.57;;;;;;;7.09;86.12;98999.47;4957037;28;20997;-86
2021/12/20 10:31:10;;;;;;;15.20;8.33;;;;;;;7.14;84.84;98998.41;4961191;28;20664;-86
2021/12/20 10:33:39;;;;;;;19.10;9.00;;;;;;;7.29;83.89;98995.19;4961533;28;20640;-86
2021/12/20 10:36:10;;;;;;;18.27;9.00;;;;;;;7.55;84.41;98992.34;4959352;28;20640;-86
2021/12/20 10:38:41;;;;;;;15.40;8.43;;;;;;;7.75;82.63;98992.34;4963576;28;21039;-86
2021/12/20 10:41:12;;;;;;;19.70;9.43;;;;;;;7.99;82.85;98987.75;4932008;28;20641;-86
2021/12/20 10:43:49;;;;;;;17.77;9.90;;;;;;;8.13;82.66;98987.19;4963199;28;20768;-86
2021/12/20 10:46:20;;;;;;;18.47;9.43;;;;;;;8.22;80.58;98987.63;4953831;28;20976;-86
2021/12/20 10:48:52;;;;;;;16.30;9.90;;;;;;;8.07;80.64;98988.28;4944938;28;21766;-85
2021/12/20 10:51:24;;;;;;;19.10;8.70;;;;;;;7.84;80.16;98984.16;4946040;28;20666;-85
2021/12/20 10:53:58;;;;;;;20.50;10.73;;;;;;;7.79;80.22;98986.97;4947064;28;20998;-85
2021/12/20 10:56:27;;;;;;;15.60;8.77;;;;;;;7.80;79.78;98987.78;4964822;28;20636;-85
2021/12/20 10:59:00;;;;;;;17.90;9.50;;;;;;;7.82;80.22;98983.38;4965214;28;20637;-85
2021/12/20 11:04:17;;;;;;;16.97;8.73;;;;;;;7.71;80.80;98983.84;4961252;28;21254;-85
2021/12/20 11:07:02;;;;;;;14.80;8.40;;;;;;;7.70;81.40;98976.97;4934989;28;21558;-85
2021/12/20 11:09:31;;;;;;;14.63;8.20;;;;;;;7.87;81.33;98979.66;4960671;28;20635;-85
2021/12/20 11:12:01;;;;;;;13.63;7.33;;;;;;;8.10;80.99;98982.97;4967478;28;20671;-85
2021/12/20 11:14:32;;;;;;;16.87;8.73;;;;;;;8.22;79.10;98973.78;4963424;28;21202;-85
2021/12/20 11:17:01;;;;;;;16.00;7.47;;;;;;;8.23;77.79;98971.13;4960397;28;21239;-85
2021/12/20 11:19:32;;;;;;;16.17;7.90;;;;;;;8.27;79.18;98964.91;4947004;28;20639;-85
2021/12/20 11:22:07;;;;;;;15.47;7.43;;;;;;;8.40;77.57;98962.56;4949100;28;20634;-84
2021/12/20 11:24:38;;;;;;;12.53;7.10;;;;;;;8.53;77.62;98967.13;4950660;28;21282;-85
2021/12/20 11:27:14;;;;;;;15.07;6.90;;;;;;;8.64;75.48;98962.28;4955391;28;20734;-84
2021/12/20 11:29:46;;;;;;;16.53;7.73;;;;;;;8.74;76.81;98971.34;4943390;28;20633;-85
2021/12/20 11:32:15;;;;;;;14.23;6.87;;;;;;;8.82;75.70;98971.81;4950572;28;20721;-85
2021/12/20 11:34:44;;;;;;;13.90;7.77;;;;;;;8.81;75.86;98967.53;4960301;28;20646;-84
2021/12/20 11:37:14;;;;;;;13.53;7.57;;;;;;;8.84;76.71;98968.25;4954301;28;20728;-84
2021/12/20 11:39:43;;;;;;;18.90;7.30;;;;;;;8.89;75.44;98970.63;4930741;28;20788;-84
2021/12/20 11:42:13;;;;;;;12.33;6.83;;;;;;;8.97;75.99;98964.13;4938212;28;20642;-85
2021/12/20 11:44:43;;;;;;;13.60;7.57;;;;;;;9.02;75.31;98969.94;4946883;28;20691;-85
2021/12/20 11:47:21;;;;;;;11.10;6.40;;;;;;;9.01;74.42;98963.91;4961198;28;20729;-85
2021/12/20 11:49:56;;;;;;;10.07;6.37;;;;;;;8.96;74.39;98967.66;4963267;28;20669;-85
2021/12/20 11:52:25;;;;;;;16.23;6.47;;;;;;;8.97;75.53;98964.13;4961693;28;20651;-85
2021/12/20 11:54:54;;;;;;;9.83;5.90;;;;;;;8.93;74.63;98965.19;4961889;28;20633;-85